Time;durP1;ratioP1;P1;durP2;ratioP2;P2;SDS_P1;SDS_P2;PMS_P1;PMS_P2;Temp;Humidity;BMP_temperature;BMP_pressure;BME280_temperature;BME280_humidity;BME280_pressure;Samples;Min_cycle;Max_cycle;Signal;HPM_P1;HPM_P2
2022/12/18 00:01:14;;;;;;;;;;;;;;;;;;5029455;28;19913;-65
2022/12/18 00:03:40;;;;;;;;;;;;;;;;;;5030058;28;19918;-66
2022/12/18 00:06:06;;;;;;;;;;;;;;;;;;5029340;28;19909;-67
2022/12/18 00:08:32;;;;;;;;;;;;;;;;;;5028627;28;19909;-66
2022/12/18 00:10:57;;;;;;;;;;;;;;;;;;5029328;28;19909;-66
2022/12/18 00:13:23;;;;;;;;;;;;;;;;;;5029377;28;19925;-70
2022/12/18 00:15:49;;;;;;;;;;;;;;;;;;5029256;28;19917;-69
2022/12/18 00:18:15;;;;;;;;;;;;;;;;;;5029452;28;19921;-66
2022/12/18 00:20:41;;;;;;;;;;;;;;;;;;5029420;28;20011;-69
2022/12/18 00:23:07;;;;;;;;;;;;;;;;;;5028795;28;19915;-67
2022/12/18 00:25:33;;;;;;;;;;;;;;;;;;5029027;28;19916;-67
2022/12/18 00:27:59;;;;;;;;;;;;;;;;;;5029889;28;20006;-67
2022/12/18 00:30:25;;;;;;;;;;;;;;;;;;5028430;28;20385;-67
2022/12/18 00:32:51;;;;;;;;;;;;;;;;;;5029440;28;19919;-67
2022/12/18 00:35:16;;;;;;;;;;;;;;;;;;5029455;28;19920;-67
2022/12/18 00:37:42;;;;;;;;;;;;;;;;;;5028298;28;19924;-67
2022/12/18 00:40:08;;;;;;;;;;;;;;;;;;5028949;28;19916;-67
2022/12/18 00:45:19;;;;;;;;;;;;;;;;;;5028742;28;19932;-66
2022/12/18 00:47:45;;;;;;;;;;;;;;;;;;5029206;28;20386;-69
2022/12/18 00:50:10;;;;;;;;;;;;;;;;;;5028552;28;19913;-66
2022/12/18 00:52:39;;;;;;;;;;;;;;;;;;5028685;28;20368;-67
2022/12/18 00:55:05;;;;;;;;;;;;;;;;;;5031531;28;19944;-68
2022/12/18 00:57:31;;;;;;;;;;;;;;;;;;5032339;28;19999;-68
2022/12/18 00:59:57;;;;;;;;;;;;;;;;;;5032578;28;19917;-67
2022/12/18 01:02:23;;;;;;;;;;;;;;;;;;5033036;28;19913;-68
2022/12/18 01:04:49;;;;;;;;;;;;;;;;;;5032425;28;19932;-67
2022/12/18 01:07:15;;;;;;;;;;;;;;;;;;5032072;28;20031;-67
2022/12/18 01:09:41;;;;;;;;;;;;;;;;;;5032399;28;19931;-68
2022/12/18 01:12:06;;;;;;;;;;;;;;;;;;5032089;28;19945;-66
2022/12/18 01:14:32;;;;;;;;;;;;;;;;;;5032459;28;19920;-66
2022/12/18 01:16:58;;;;;;;;;;;;;;;;;;5032027;28;19936;-68
2022/12/18 01:19:24;;;;;;;;;;;;;;;;;;5032359;28;20006;-68
2022/12/18 01:21:50;;;;;;;;;;;;;;;;;;5032123;28;20381;-68
2022/12/18 01:24:16;;;;;;;;;;;;;;;;;;5031042;28;20014;-68
2022/12/18 01:26:42;;;;;;;;;;;;;;;;;;5031931;28;19916;-68
2022/12/18 01:29:08;;;;;;;;;;;;;;;;;;5030888;28;19921;-68
2022/12/18 01:31:33;;;;;;;;;;;;;;;;;;5032291;28;20019;-67
2022/12/18 01:33:59;;;;;;;;;;;;;;;;;;5031944;28;19920;-69
2022/12/18 01:36:25;;;;;;;;;;;;;;;;;;5031220;28;19936;-67
2022/12/18 01:38:51;;;;;;;;;;;;;;;;;;5032117;28;19967;-67
2022/12/18 01:41:17;;;;;;;;;;;;;;;;;;5032122;28;19971;-69
2022/12/18 01:43:43;;;;;;;;;;;;;;;;;;5031799;28;19915;-70
2022/12/18 01:46:09;;;;;;;;;;;;;;;;;;5025064;28;19917;-70
2022/12/18 01:48:35;;;;;;;;;;;;;;;;;;5032000;28;19944;-67
2022/12/18 01:51:01;;;;;;;;;;;;;;;;;;5031029;28;19913;-70
2022/12/18 01:53:26;;;;;;;;;;;;;;;;;;5031631;28;19936;-67
2022/12/18 01:55:52;;;;;;;;;;;;;;;;;;5031663;28;19913;-70
2022/12/18 01:58:18;;;;;;;;;;;;;;;;;;5031577;28;19917;-70
2022/12/18 02:00:44;;;;;;;;;;;;;;;;;;5031504;28;19917;-69
2022/12/18 02:03:10;;;;;;;;;;;;;;;;;;5031192;28;19996;-69
2022/12/18 02:05:36;;;;;;;;;;;;;;;;;;5029946;28;20397;-68
2022/12/18 02:08:02;;;;;;;;;;;;;;;;;;5031313;28;19913;-69
2022/12/18 02:10:28;;;;;;;;;;;;;;;;;;5030986;28;20392;-68
2022/12/18 02:12:54;;;;;;;;;;;;;;;;;;5031056;28;20264;-68
2022/12/18 02:15:19;;;;;;;;;;;;;;;;;;5031186;28;19913;-69
2022/12/18 02:17:45;;;;;;;;;;;;;;;;;;5030847;28;19964;-69
2022/12/18 02:20:11;;;;;;;;;;;;;;;;;;5030783;28;19913;-69
2022/12/18 02:22:37;;;;;;;;;;;;;;;;;;5029843;28;19936;-69
2022/12/18 02:25:03;;;;;;;;;;;;;;;;;;5031382;28;20385;-69
2022/12/18 02:27:29;;;;;;;;;;;;;;;;;;5030660;28;20034;-69
2022/12/18 02:29:55;;;;;;;;;;;;;;;;;;5031338;28;20389;-69
2022/12/18 02:32:21;;;;;;;;;;;;;;;;;;5029982;28;19909;-69
2022/12/18 02:34:46;;;;;;;;;;;;;;;;;;5030720;28;19936;-69
2022/12/18 02:37:12;;;;;;;;;;;;;;;;;;5030785;28;19974;-69
2022/12/18 02:39:38;;;;;;;;;;;;;;;;;;5031029;28;19936;-69
2022/12/18 02:42:07;;;;;;;;;;;;;;;;;;5030587;28;19916;-69
2022/12/18 02:44:33;;;;;;;;;;;;;;;;;;5030446;28;19939;-68
2022/12/18 02:46:59;;;;;;;;;;;;;;;;;;5030158;28;19909;-69
2022/12/18 02:49:25;;;;;;;;;;;;;;;;;;5030222;28;20372;-69
2022/12/18 02:51:51;;;;;;;;;;;;;;;;;;5030290;28;20454;-69
2022/12/18 02:54:17;;;;;;;;;;;;;;;;;;5030302;28;19913;-68
2022/12/18 02:56:43;;;;;;;;;;;;;;;;;;5030135;28;19936;-69
2022/12/18 02:59:08;;;;;;;;;;;;;;;;;;5030420;28;19995;-69
2022/12/18 03:01:34;;;;;;;;;;;;;;;;;;5030514;28;19935;-69
2022/12/18 03:04:00;;;;;;;;;;;;;;;;;;5030262;28;19916;-69
2022/12/18 03:06:26;;;;;;;;;;;;;;;;;;5023361;28;19991;-70
2022/12/18 03:08:52;;;;;;;;;;;;;;;;;;5030258;28;19915;-69
2022/12/18 03:12:22;;;;;;;;;;;;;;;;;;5030184;28;19913;-70
2022/12/18 03:14:04;;;;;;;;;;;;;;;;;;5029800;28;19925;-69
2022/12/18 03:16:30;;;;;;;;;;;;;;;;;;5029287;28;19916;-70
2022/12/18 03:18:57;;;;;;;;;;;;;;;;;;5029607;28;19967;-69
2022/12/18 03:21:22;;;;;;;;;;;;;;;;;;5024029;28;19955;-70
2022/12/18 03:23:48;;;;;;;;;;;;;;;;;;5029905;28;19913;-70
2022/12/18 03:26:14;;;;;;;;;;;;;;;;;;5030070;28;19913;-69
2022/12/18 03:28:40;;;;;;;;;;;;;;;;;;5029653;28;20032;-70
2022/12/18 03:31:06;;;;;;;;;;;;;;;;;;5029877;28;19928;-70
2022/12/18 03:33:32;;;;;;;;;;;;;;;;;;5029764;28;19909;-69
2022/12/18 03:35:58;;;;;;;;;;;;;;;;;;5030222;28;20386;-69
2022/12/18 03:38:24;;;;;;;;;;;;;;;;;;5029744;28;19917;-69
2022/12/18 03:40:49;;;;;;;;;;;;;;;;;;5029741;28;20444;-69
2022/12/18 03:43:15;;;;;;;;;;;;;;;;;;5030031;28;20340;-68
2022/12/18 03:45:41;;;;;;;;;;;;;;;;;;5029367;28;19920;-68
2022/12/18 03:48:07;;;;;;;;;;;;;;;;;;5029650;28;20393;-68
2022/12/18 03:50:33;;;;;;;;;;;;;;;;;;5029555;28;20015;-67
2022/12/18 03:52:59;;;;;;;;;;;;;;;;;;5029624;28;20377;-68
2022/12/18 03:55:25;;;;;;;;;;;;;;;;;;5030331;28;19956;-68
2022/12/18 03:57:51;;;;;;;;;;;;;;;;;;5029726;28;20352;-68
2022/12/18 04:00:16;;;;;;;;;;;;;;;;;;5029387;28;19916;-68
2022/12/18 04:02:42;;;;;;;;;;;;;;;;;;5029247;28;20292;-68
2022/12/18 04:05:08;;;;;;;;;;;;;;;;;;5029849;28;19935;-68
2022/12/18 04:07:34;;;;;;;;;;;;;;;;;;5029284;28;19909;-67
2022/12/18 04:10:00;;;;;;;;;;;;;;;;;;5030103;28;19917;-68
2022/12/18 04:12:26;;;;;;;;;;;;;;;;;;5029738;28;19917;-68
2022/12/18 04:14:52;;;;;;;;;;;;;;;;;;5029201;28;20337;-69
2022/12/18 04:17:18;;;;;;;;;;;;;;;;;;5029042;28;19924;-69
2022/12/18 04:19:43;;;;;;;;;;;;;;;;;;5028213;28;20370;-68
2022/12/18 04:22:09;;;;;;;;;;;;;;;;;;5029333;28;19916;-70
2022/12/18 04:24:35;;;;;;;;;;;;;;;;;;5029493;28;19913;-69
2022/12/18 04:27:01;;;;;;;;;;;;;;;;;;5029119;28;19913;-69
2022/12/18 04:29:28;;;;;;;;;;;;;;;;;;5030900;28;19913;-69
2022/12/18 04:31:54;;;;;;;;;;;;;;;;;;5033130;28;19960;-69
2022/12/18 04:34:20;;;;;;;;;;;;;;;;;;5033571;28;19916;-69
2022/12/18 04:36:45;;;;;;;;;;;;;;;;;;5032513;28;19909;-68
2022/12/18 04:39:11;;;;;;;;;;;;;;;;;;5033444;28;19996;-69
2022/12/18 04:41:37;;;;;;;;;;;;;;;;;;5032442;28;19913;-69
2022/12/18 04:44:03;;;;;;;;;;;;;;;;;;5032683;28;19932;-69
2022/12/18 04:46:29;;;;;;;;;;;;;;;;;;5032729;28;19955;-68
2022/12/18 04:48:55;;;;;;;;;;;;;;;;;;5032779;28;19920;-68
2022/12/18 04:51:21;;;;;;;;;;;;;;;;;;5032874;28;19959;-68
2022/12/18 04:53:47;;;;;;;;;;;;;;;;;;5032781;28;19957;-69
2022/12/18 04:56:12;;;;;;;;;;;;;;;;;;5032951;28;19916;-68
2022/12/18 04:58:38;;;;;;;;;;;;;;;;;;5031874;28;19947;-66
2022/12/18 05:01:04;;;;;;;;;;;;;;;;;;5032660;28;20405;-68
2022/12/18 05:03:30;;;;;;;;;;;;;;;;;;5032783;28;19918;-68
2022/12/18 05:05:56;;;;;;;;;;;;;;;;;;5032423;28;19977;-68
2022/12/18 05:08:22;;;;;;;;;;;;;;;;;;5032621;28;19944;-68
2022/12/18 05:10:48;;;;;;;;;;;;;;;;;;5032370;28;19919;-68
2022/12/18 05:13:14;;;;;;;;;;;;;;;;;;5031841;28;20473;-68
2022/12/18 05:15:41;;;;;;;;;;;;;;;;;;5032503;28;19910;-68
2022/12/18 05:18:07;;;;;;;;;;;;;;;;;;5032496;28;19921;-69
2022/12/18 05:20:33;;;;;;;;;;;;;;;;;;5032111;28;19913;-69
2022/12/18 05:22:59;;;;;;;;;;;;;;;;;;5025833;28;19936;-68
2022/12/18 05:25:25;;;;;;;;;;;;;;;;;;5032351;28;20496;-70
2022/12/18 05:27:50;;;;;;;;;;;;;;;;;;5030688;28;19920;-69
2022/12/18 05:30:16;;;;;;;;;;;;;;;;;;5032056;28;20290;-67
2022/12/18 05:32:42;;;;;;;;;;;;;;;;;;5031770;28;20028;-68
2022/12/18 05:35:08;;;;;;;;;;;;;;;;;;5032045;28;19909;-68
2022/12/18 05:37:34;;;;;;;;;;;;;;;;;;5032111;28;19918;-68
2022/12/18 05:40:00;;;;;;;;;;;;;;;;;;5031763;28;19924;-67
2022/12/18 05:42:26;;;;;;;;;;;;;;;;;;5031051;28;19913;-68
2022/12/18 05:44:52;;;;;;;;;;;;;;;;;;5031930;28;19909;-68
2022/12/18 05:47:18;;;;;;;;;;;;;;;;;;5031896;28;19924;-68
2022/12/18 05:49:44;;;;;;;;;;;;;;;;;;5031924;28;20048;-68
2022/12/18 05:52:10;;;;;;;;;;;;;;;;;;5030194;28;19916;-68
2022/12/18 05:54:36;;;;;;;;;;;;;;;;;;5031674;28;20002;-69
2022/12/18 05:57:02;;;;;;;;;;;;;;;;;;5030925;28;20488;-69
2022/12/18 05:59:27;;;;;;;;;;;;;;;;;;5031758;28;20373;-68
2022/12/18 06:01:53;;;;;;;;;;;;;;;;;;5031062;28;19940;-69
2022/12/18 06:04:19;;;;;;;;;;;;;;;;;;5031184;28;19913;-68
2022/12/18 06:06:45;;;;;;;;;;;;;;;;;;5031603;28;19909;-69
2022/12/18 06:09:11;;;;;;;;;;;;;;;;;;5031193;28;19917;-69
2022/12/18 06:11:37;;;;;;;;;;;;;;;;;;5030686;28;19940;-68
2022/12/18 06:14:03;;;;;;;;;;;;;;;;;;5031386;28;19925;-69
2022/12/18 06:16:29;;;;;;;;;;;;;;;;;;5030912;28;19916;-68
2022/12/18 06:18:55;;;;;;;;;;;;;;;;;;5030944;28;19921;-69
2022/12/18 06:21:21;;;;;;;;;;;;;;;;;;5031907;28;20004;-69
2022/12/18 06:23:47;;;;;;;;;;;;;;;;;;5024545;28;20290;-69
2022/12/18 06:26:13;;;;;;;;;;;;;;;;;;5030720;28;19952;-69
2022/12/18 06:28:39;;;;;;;;;;;;;;;;;;5030904;28;19963;-68
2022/12/18 06:31:05;;;;;;;;;;;;;;;;;;5031307;28;19915;-69
2022/12/18 06:33:30;;;;;;;;;;;;;;;;;;5031150;28;19975;-69
2022/12/18 06:35:56;;;;;;;;;;;;;;;;;;5030837;28;19917;-68
2022/12/18 06:38:22;;;;;;;;;;;;;;;;;;5030812;28;20008;-68
2022/12/18 06:40:48;;;;;;;;;;;;;;;;;;5030521;28;19917;-69
2022/12/18 06:43:14;;;;;;;;;;;;;;;;;;5030779;28;19968;-70
2022/12/18 06:45:40;;;;;;;;;;;;;;;;;;5030873;28;19918;-68
2022/12/18 06:48:06;;;;;;;;;;;;;;;;;;5030646;28;20388;-69
2022/12/18 06:50:32;;;;;;;;;;;;;;;;;;5030321;28;19967;-69
2022/12/18 06:52:57;;;;;;;;;;;;;;;;;;5029629;28;20452;-68
2022/12/18 06:55:23;;;;;;;;;;;;;;;;;;5029729;28;19920;-69
2022/12/18 06:57:49;;;;;;;;;;;;;;;;;;5030256;28;20305;-68
2022/12/18 07:00:15;;;;;;;;;;;;;;;;;;5030480;28;20286;-69
2022/12/18 07:02:41;;;;;;;;;;;;;;;;;;5030780;28;19935;-68
2022/12/18 07:05:07;;;;;;;;;;;;;;;;;;5030553;28;20000;-69
2022/12/18 07:07:33;;;;;;;;;;;;;;;;;;5030125;28;19916;-69
2022/12/18 07:09:59;;;;;;;;;;;;;;;;;;5030078;28;20394;-69
2022/12/18 07:12:25;;;;;;;;;;;;;;;;;;5023372;28;19968;-68
2022/12/18 07:14:51;;;;;;;;;;;;;;;;;;5030171;28;19917;-69
2022/12/18 07:17:17;;;;;;;;;;;;;;;;;;5029653;28;20247;-68
2022/12/18 07:19:42;;;;;;;;;;;;;;;;;;5030010;28;19917;-67
2022/12/18 07:22:08;;;;;;;;;;;;;;;;;;5029892;28;19913;-68
2022/12/18 07:24:34;;;;;;;;;;;;;;;;;;5022894;28;20428;-67
2022/12/18 07:27:00;;;;;;;;;;;;;;;;;;5029996;28;19913;-68
2022/12/18 07:29:26;;;;;;;;;;;;;;;;;;5030141;28;19928;-68
2022/12/18 07:31:52;;;;;;;;;;;;;;;;;;5029629;28;19931;-67
2022/12/18 07:34:18;;;;;;;;;;;;;;;;;;5029592;28;19916;-67
2022/12/18 07:36:44;;;;;;;;;;;;;;;;;;5029475;28;19914;-68
2022/12/18 07:39:10;;;;;;;;;;;;;;;;;;5029260;28;19924;-67
2022/12/18 07:41:36;;;;;;;;;;;;;;;;;;5029954;28;20008;-66
2022/12/18 07:44:02;;;;;;;;;;;;;;;;;;5029867;28;20039;-67
2022/12/18 07:46:28;;;;;;;;;;;;;;;;;;5029493;28;19941;-67
2022/12/18 07:48:54;;;;;;;;;;;;;;;;;;5029591;28;20389;-67
2022/12/18 07:51:19;;;;;;;;;;;;;;;;;;5028939;28;19919;-68
2022/12/18 07:53:45;;;;;;;;;;;;;;;;;;5028879;28;19920;-69
2022/12/18 07:56:11;;;;;;;;;;;;;;;;;;5029051;28;19952;-68
2022/12/18 07:58:37;;;;;;;;;;;;;;;;;;5029208;28;20691;-68
2022/12/18 08:01:03;;;;;;;;;;;;;;;;;;5028933;28;19913;-69
2022/12/18 08:03:29;;;;;;;;;;;;;;;;;;5029342;28;19963;-69
2022/12/18 08:05:55;;;;;;;;;;;;;;;;;;5029058;28;20344;-68
2022/12/18 08:08:21;;;;;;;;;;;;;;;;;;5028742;28;19913;-68
2022/12/18 08:10:47;;;;;;;;;;;;;;;;;;5029156;28;20242;-68
2022/12/18 08:13:13;;;;;;;;;;;;;;;;;;5029257;28;19925;-68
2022/12/18 08:15:39;;;;;;;;;;;;;;;;;;5028897;28;19964;-68
2022/12/18 08:18:04;;;;;;;;;;;;;;;;;;5029393;28;19917;-69
2022/12/18 08:20:30;;;;;;;;;;;;;;;;;;5029197;28;19917;-69
2022/12/18 08:22:57;;;;;;;;;;;;;;;;;;5028828;28;19953;-68
2022/12/18 08:25:23;;;;;;;;;;;;;;;;;;5022759;28;19964;-68
2022/12/18 08:27:49;;;;;;;;;;;;;;;;;;5029061;28;19960;-68
2022/12/18 08:30:15;;;;;;;;;;;;;;;;;;5029310;28;19909;-66
2022/12/18 08:32:41;;;;;;;;;;;;;;;;;;5029032;28;20011;-66
2022/12/18 08:35:08;;;;;;;;;;;;;;;;;;5028963;28;19928;-66
2022/12/18 08:37:34;;;;;;;;;;;;;;;;;;5028555;28;19955;-66
2022/12/18 08:40:00;;;;;;;;;;;;;;;;;;5028906;28;19983;-68
2022/12/18 08:45:10;;;;;;;;;;;;;;;;;;5028702;28;20506;-66
2022/12/18 08:47:36;;;;;;;;;;;;;;;;;;5028557;28;19939;-67
2022/12/18 08:50:02;;;;;;;;;;;;;;;;;;5028683;28;20021;-68
2022/12/18 08:52:28;;;;;;;;;;;;;;;;;;5022980;28;19913;-66
2022/12/18 08:54:54;;;;;;;;;;;;;;;;;;5027871;28;19937;-67
2022/12/18 08:57:20;;;;;;;;;;;;;;;;;;5028061;28;19963;-66
2022/12/18 08:59:46;;;;;;;;;;;;;;;;;;5028325;28;19917;-74
2022/12/18 09:02:12;;;;;;;;;;;;;;;;;;5029150;28;19913;-74
2022/12/18 09:04:39;;;;;;;;;;;;;;;;;;5028723;28;19914;-74
2022/12/18 09:07:05;;;;;;;;;;;;;;;;;;5028076;28;20007;-73
2022/12/18 09:09:31;;;;;;;;;;;;;;;;;;5028843;28;20007;-73
2022/12/18 09:11:57;;;;;;;;;;;;;;;;;;5021504;28;20325;-73
2022/12/18 09:14:23;;;;;;;;;;;;;;;;;;5028520;28;19946;-72
2022/12/18 09:16:49;;;;;;;;;;;;;;;;;;5032119;28;20522;-74
2022/12/18 09:19:14;;;;;;;;;;;;;;;;;;5029849;28;19921;-74
2022/12/18 09:21:40;;;;;;;;;;;;;;;;;;5031521;28;19913;-75
2022/12/18 09:24:06;;;;;;;;;;;;;;;;;;5030079;28;19913;-73
2022/12/18 09:26:32;;;;;;;;;;;;;;;;;;5023979;28;20366;-74
2022/12/18 09:28:58;;;;;;;;;;;;;;;;;;5028805;28;19917;-71
2022/12/18 09:31:24;;;;;;;;;;;;;;;;;;5029546;28;20439;-73
2022/12/18 09:33:50;;;;;;;;;;;;;;;;;;5029692;28;19917;-72
2022/12/18 09:36:16;;;;;;;;;;;;;;;;;;5034378;28;19917;-74
2022/12/18 09:38:42;;;;;;;;;;;;;;;;;;5030106;28;19925;-72
2022/12/18 09:41:08;;;;;;;;;;;;;;;;;;5030020;28;19924;-73
2022/12/18 09:43:34;;;;;;;;;;;;;;;;;;5029595;28;19924;-73
2022/12/18 09:46:00;;;;;;;;;;;;;;;;;;5029729;28;20488;-73
2022/12/18 09:48:26;;;;;;;;;;;;;;;;;;5029232;28;19923;-73
2022/12/18 09:50:51;;;;;;;;;;;;;;;;;;5028776;28;19925;-73
2022/12/18 09:53:17;;;;;;;;;;;;;;;;;;5029671;28;19995;-72
2022/12/18 09:55:43;;;;;;;;;;;;;;;;;;5027828;28;19914;-73
2022/12/18 09:58:09;;;;;;;;;;;;;;;;;;5029520;28;19932;-69
2022/12/18 10:00:35;;;;;;;;;;;;;;;;;;5029364;28;19947;-74
2022/12/18 10:03:01;;;;;;;;;;;;;;;;;;5028720;28;19913;-73
2022/12/18 10:05:27;;;;;;;;;;;;;;;;;;5029396;28;19933;-73
2022/12/18 10:07:53;;;;;;;;;;;;;;;;;;5028981;28;20408;-74
2022/12/18 10:10:19;;;;;;;;;;;;;;;;;;5029544;28;20297;-74
2022/12/18 10:12:45;;;;;;;;;;;;;;;;;;5028922;28;19933;-72
2022/12/18 10:15:11;;;;;;;;;;;;;;;;;;5029752;28;19917;-74
2022/12/18 10:17:37;;;;;;;;;;;;;;;;;;5028291;28;20354;-73
2022/12/18 10:20:03;;;;;;;;;;;;;;;;;;5029366;28;19913;-73
2022/12/18 10:22:29;;;;;;;;;;;;;;;;;;5027609;28;19913;-74
2022/12/18 10:24:54;;;;;;;;;;;;;;;;;;5028839;28;19913;-73
2022/12/18 10:27:20;;;;;;;;;;;;;;;;;;5027948;28;19913;-73
2022/12/18 10:29:46;;;;;;;;;;;;;;;;;;5027324;28;20374;-72
2022/12/18 10:32:12;;;;;;;;;;;;;;;;;;5028797;28;19992;-74
2022/12/18 10:34:38;;;;;;;;;;;;;;;;;;5028728;28;20029;-71
2022/12/18 10:37:04;;;;;;;;;;;;;;;;;;5028703;28;19924;-73
2022/12/18 10:39:30;;;;;;;;;;;;;;;;;;5028944;28;19928;-73
2022/12/18 10:41:56;;;;;;;;;;;;;;;;;;5028505;28;20008;-71
2022/12/18 10:44:22;;;;;;;;;;;;;;;;;;5026222;28;20007;-73
2022/12/18 10:46:48;;;;;;;;;;;;;;;;;;5028246;28;19917;-73
2022/12/18 10:49:14;;;;;;;;;;;;;;;;;;5026875;28;19990;-73
2022/12/18 10:51:40;;;;;;;;;;;;;;;;;;5027771;28;19948;-73
2022/12/18 10:54:06;;;;;;;;;;;;;;;;;;5028607;28;19913;-73
2022/12/18 10:56:32;;;;;;;;;;;;;;;;;;5028493;28;19925;-73
2022/12/18 10:58:58;;;;;;;;;;;;;;;;;;5028577;28;20263;-73
2022/12/18 11:01:24;;;;;;;;;;;;;;;;;;5028199;28;20003;-71
2022/12/18 11:03:50;;;;;;;;;;;;;;;;;;5028066;28;19917;-72
2022/12/18 11:06:16;;;;;;;;;;;;;;;;;;5028240;28;19913;-72
2022/12/18 11:08:42;;;;;;;;;;;;;;;;;;5028024;28;20421;-73
2022/12/18 11:11:08;;;;;;;;;;;;;;;;;;5025510;28;20008;-70
2022/12/18 11:13:34;;;;;;;;;;;;;;;;;;5027984;28;20452;-73
2022/12/18 11:16:00;;;;;;;;;;;;;;;;;;5027438;28;19921;-73
2022/12/18 11:18:26;;;;;;;;;;;;;;;;;;5028013;28;19932;-72
2022/12/18 11:20:52;;;;;;;;;;;;;;;;;;5027693;28;19928;-72
2022/12/18 11:23:17;;;;;;;;;;;;;;;;;;5031172;28;19927;-73
2022/12/18 11:25:43;;;;;;;;;;;;;;;;;;5029287;28;19917;-72
2022/12/18 11:28:09;;;;;;;;;;;;;;;;;;5024936;28;19917;-72
2022/12/18 11:30:35;;;;;;;;;;;;;;;;;;5027119;28;20039;-73
2022/12/18 11:33:01;;;;;;;;;;;;;;;;;;5027418;28;19932;-72
2022/12/18 11:35:27;;;;;;;;;;;;;;;;;;5027706;28;19948;-67
2022/12/18 11:37:53;;;;;;;;;;;;;;;;;;5027017;28;20007;-70
2022/12/18 11:40:19;;;;;;;;;;;;;;;;;;5027622;28;20397;-71
2022/12/18 11:42:44;;;;;;;;;;;;;;;;;;5027791;28;19917;-69
2022/12/18 11:45:10;;;;;;;;;;;;;;;;;;5026449;28;20008;-71
2022/12/18 11:47:36;;;;;;;;;;;;;;;;;;5026574;28;19912;-69
2022/12/18 11:50:02;;;;;;;;;;;;;;;;;;5026659;28;19921;-70
2022/12/18 11:52:28;;;;;;;;;;;;;;;;;;5027023;28;19913;-70
2022/12/18 11:54:54;;;;;;;;;;;;;;;;;;5026995;28;19932;-71
2022/12/18 11:57:20;;;;;;;;;;;;;;;;;;5027275;28;19978;-70
2022/12/18 11:59:46;;;;;;;;;;;;;;;;;;5024814;28;19970;-70
2022/12/18 12:02:12;;;;;;;;;;;;;;;;;;5027222;28;19917;-71
2022/12/18 12:04:38;;;;;;;;;;;;;;;;;;5027268;28;19920;-71
2022/12/18 12:07:03;;;;;;;;;;;;;;;;;;5027032;28;19917;-69
2022/12/18 12:09:29;;;;;;;;;;;;;;;;;;5027781;28;19925;-70
2022/12/18 12:11:55;;;;;;;;;;;;;;;;;;5027035;28;20055;-70
2022/12/18 12:14:21;;;;;;;;;;;;;;;;;;5026478;28;19925;-71
2022/12/18 12:16:47;;;;;;;;;;;;;;;;;;5027635;28;19928;-68
2022/12/18 12:19:13;;;;;;;;;;;;;;;;;;5026412;28;20051;-70
2022/12/18 12:21:40;;;;;;;;;;;;;;;;;;5026845;28;19939;-69
2022/12/18 12:24:06;;;;;;;;;;;;;;;;;;5025590;28;20650;-68
2022/12/18 12:26:32;;;;;;;;;;;;;;;;;;5026857;28;20047;-68
2022/12/18 12:28:57;;;;;;;;;;;;;;;;;;5026482;28;19917;-69
2022/12/18 12:31:23;;;;;;;;;;;;;;;;;;5027022;28;20671;-70
2022/12/18 12:33:49;;;;;;;;;;;;;;;;;;5025937;28;19916;-68
2022/12/18 12:36:15;;;;;;;;;;;;;;;;;;5027069;28;19924;-70
2022/12/18 12:38:42;;;;;;;;;;;;;;;;;;5026314;28;19932;-69
2022/12/18 12:43:12;;;;;;;;;;;;;;;;;;5026414;28;19917;-70
2022/12/18 12:43:54;;;;;;;;;;;;;;;;;;5026135;28;19922;-70
2022/12/18 12:46:20;;;;;;;;;;;;;;;;;;5026518;28;20270;-70
2022/12/18 12:48:46;;;;;;;;;;;;;;;;;;5026753;28;19948;-70
2022/12/18 12:51:12;;;;;;;;;;;;;;;;;;5029202;28;19966;-68
2022/12/18 12:53:38;;;;;;;;;;;;;;;;;;5030307;28;19921;-70
2022/12/18 12:56:04;;;;;;;;;;;;;;;;;;5030792;28;19924;-70
2022/12/18 12:58:31;;;;;;;;;;;;;;;;;;5030106;28;19921;-69
2022/12/18 13:00:57;;;;;;;;;;;;;;;;;;5030133;28;20366;-69
2022/12/18 13:03:23;;;;;;;;;;;;;;;;;;5029439;28;19928;-69
2022/12/18 13:05:49;;;;;;;;;;;;;;;;;;5029538;28;19917;-70
2022/12/18 13:08:15;;;;;;;;;;;;;;;;;;5027661;28;19916;-68
2022/12/18 13:10:41;;;;;;;;;;;;;;;;;;5029458;28;19939;-68
2022/12/18 13:13:06;;;;;;;;;;;;;;;;;;5028739;28;20027;-69
2022/12/18 13:15:32;;;;;;;;;;;;;;;;;;5029940;28;19921;-66
2022/12/18 13:17:58;;;;;;;;;;;;;;;;;;5029817;28;19921;-69
2022/12/18 13:20:24;;;;;;;;;;;;;;;;;;5030021;28;19982;-68
2022/12/18 13:22:51;;;;;;;;;;;;;;;;;;5030037;28;19960;-68
2022/12/18 13:25:17;;;;;;;;;;;;;;;;;;5029583;28;20007;-69
2022/12/18 13:27:42;;;;;;;;;;;;;;;;;;5029442;28;20047;-69
2022/12/18 13:30:08;;;;;;;;;;;;;;;;;;5029915;28;19924;-67
2022/12/18 13:32:34;;;;;;;;;;;;;;;;;;5029915;28;19924;-67
2022/12/18 13:35:00;;;;;;;;;;;;;;;;;;5029514;28;19979;-68
2022/12/18 13:37:26;;;;;;;;;;;;;;;;;;5029409;28;19921;-68
2022/12/18 13:39:52;;;;;;;;;;;;;;;;;;5029517;28;19927;-67
2022/12/18 13:45:03;;;;;;;;;;;;;;;;;;5029062;28;20277;-68
2022/12/18 13:47:29;;;;;;;;;;;;;;;;;;5030406;28;20377;-65
2022/12/18 13:49:55;;;;;;;;;;;;;;;;;;5029679;28;19921;-68
2022/12/18 13:52:20;;;;;;;;;;;;;;;;;;5029637;28;20430;-68
2022/12/18 13:54:46;;;;;;;;;;;;;;;;;;5028213;28;19913;-68
2022/12/18 13:57:12;;;;;;;;;;;;;;;;;;5028568;28;19917;-67
2022/12/18 13:59:38;;;;;;;;;;;;;;;;;;5028730;28;19917;-68
2022/12/18 14:02:04;;;;;;;;;;;;;;;;;;5029333;28;19916;-66
2022/12/18 14:04:30;;;;;;;;;;;;;;;;;;5029687;28;19917;-67
2022/12/18 14:06:56;;;;;;;;;;;;;;;;;;5028858;28;19921;-65
2022/12/18 14:09:22;;;;;;;;;;;;;;;;;;5029205;28;19913;-66
2022/12/18 14:11:48;;;;;;;;;;;;;;;;;;5028348;28;19917;-65
2022/12/18 14:14:14;;;;;;;;;;;;;;;;;;5028925;28;19932;-65
2022/12/18 14:16:39;;;;;;;;;;;;;;;;;;5028883;28;19921;-66
2022/12/18 14:19:05;;;;;;;;;;;;;;;;;;5028659;28;19929;-67
2022/12/18 14:21:33;;;;;;;;;;;;;;;;;;5026552;28;19917;-67
2022/12/18 14:23:59;;;;;;;;;;;;;;;;;;5028281;28;19920;-67
2022/12/18 14:26:27;;;;;;;;;;;;;;;;;;5028589;28;20342;-66
2022/12/18 14:28:53;;;;;;;;;;;;;;;;;;5028669;28;19913;-66
2022/12/18 14:31:19;;;;;;;;;;;;;;;;;;5028838;28;20305;-67
2022/12/18 14:33:45;;;;;;;;;;;;;;;;;;5028107;28;19913;-67
2022/12/18 14:36:11;;;;;;;;;;;;;;;;;;5028405;28;19917;-65
2022/12/18 14:38:37;;;;;;;;;;;;;;;;;;5028186;28;20346;-66
2022/12/18 14:41:03;;;;;;;;;;;;;;;;;;5025057;28;19917;-66
2022/12/18 14:43:29;;;;;;;;;;;;;;;;;;5026143;28;20325;-66
2022/12/18 14:45:55;;;;;;;;;;;;;;;;;;5028650;28;19925;-66
2022/12/18 14:48:21;;;;;;;;;;;;;;;;;;5028635;28;19924;-67
2022/12/18 14:50:47;;;;;;;;;;;;;;;;;;5029158;28;20290;-68
2022/12/18 14:53:13;;;;;;;;;;;;;;;;;;5028107;28;19921;-67
2022/12/18 14:55:38;;;;;;;;;;;;;;;;;;5028231;28;19913;-66
2022/12/18 14:58:04;;;;;;;;;;;;;;;;;;5028583;28;19917;-63
2022/12/18 15:00:30;;;;;;;;;;;;;;;;;;5027996;28;19909;-67
2022/12/18 15:02:56;;;;;;;;;;;;;;;;;;5027335;28;19996;-65
2022/12/18 15:05:22;;;;;;;;;;;;;;;;;;5028052;28;20028;-64
2022/12/18 15:07:48;;;;;;;;;;;;;;;;;;5027578;28;19917;-65
2022/12/18 15:10:14;;;;;;;;;;;;;;;;;;5025763;28;19913;-65
2022/12/18 15:12:40;;;;;;;;;;;;;;;;;;5026227;28;19925;-65
2022/12/18 15:15:06;;;;;;;;;;;;;;;;;;5028363;28;19921;-66
2022/12/18 15:17:32;;;;;;;;;;;;;;;;;;5026240;28;19917;-65
2022/12/18 15:19:58;;;;;;;;;;;;;;;;;;5027330;28;20328;-68
2022/12/18 15:22:24;;;;;;;;;;;;;;;;;;5027906;28;19910;-66
2022/12/18 15:24:49;;;;;;;;;;;;;;;;;;5027012;28;19921;-64
2022/12/18 15:27:15;;;;;;;;;;;;;;;;;;5027186;28;20670;-65
2022/12/18 15:29:41;;;;;;;;;;;;;;;;;;5026916;28;19953;-66
2022/12/18 15:32:07;;;;;;;;;;;;;;;;;;5027629;28;20297;-68
2022/12/18 15:34:36;;;;;;;;;;;;;;;;;;5027535;28;20289;-64
2022/12/18 15:37:02;;;;;;;;;;;;;;;;;;5027030;28;20397;-67
2022/12/18 15:39:28;;;;;;;;;;;;;;;;;;5027551;28;20196;-67
2022/12/18 15:44:38;;;;;;;;;;;;;;;;;;5025027;28;20023;-66
2022/12/18 15:47:04;;;;;;;;;;;;;;;;;;5026042;28;20298;-69
2022/12/18 15:49:30;;;;;;;;;;;;;;;;;;5027237;28;20830;-65
2022/12/18 15:51:56;;;;;;;;;;;;;;;;;;5025867;28;20032;-66
2022/12/18 15:57:22;;;;;;;;;;;;;;;;;;5026385;28;19913;-66
2022/12/18 15:57:23;;;;;;;;;;;;;;;;;;5027645;28;20012;-67
2022/12/18 15:59:49;;;;;;;;;;;;;;;;;;5025449;28;20313;-67
2022/12/18 16:02:15;;;;;;;;;;;;;;;;;;5026634;28;19917;-66
2022/12/18 16:04:41;;;;;;;;;;;;;;;;;;5026996;28;20427;-66
2022/12/18 16:07:07;;;;;;;;;;;;;;;;;;5026739;28;20011;-64
2022/12/18 16:09:33;;;;;;;;;;;;;;;;;;5027289;28;19999;-65
2022/12/18 16:11:59;;;;;;;;;;;;;;;;;;5027116;28;19923;-67
2022/12/18 16:14:28;;;;;;;;;;;;;;;;;;5026803;28;19925;-68
2022/12/18 16:16:53;;;;;;;;;;;;;;;;;;5026483;28;20271;-68
2022/12/18 16:19:21;;;;;;;;;;;;;;;;;;5026816;28;19932;-67
2022/12/18 16:21:46;;;;;;;;;;;;;;;;;;5026043;28;19914;-67
2022/12/18 16:24:12;;;;;;;;;;;;;;;;;;5027067;28;20019;-65
2022/12/18 16:26:38;;;;;;;;;;;;;;;;;;5030542;28;20313;-66
2022/12/18 16:29:04;;;;;;;;;;;;;;;;;;5030393;28;19987;-68
2022/12/18 16:31:30;;;;;;;;;;;;;;;;;;5030049;28;19955;-68
2022/12/18 16:33:56;;;;;;;;;;;;;;;;;;5029936;28;19921;-68
2022/12/18 16:36:22;;;;;;;;;;;;;;;;;;5030017;28;19921;-65
2022/12/18 16:38:48;;;;;;;;;;;;;;;;;;5030592;28;19960;-63
2022/12/18 16:41:35;;;;;;;;;;;;;;;;;;5030905;28;19956;-67
2022/12/18 16:44:00;;;;;;;;;;;;;;;;;;5030394;28;19999;-68
2022/12/18 16:46:26;;;;;;;;;;;;;;;;;;5030568;28;20000;-66
2022/12/18 16:48:52;;;;;;;;;;;;;;;;;;5029553;28;20321;-66